createdAt,value
2019-05-03T00:04:38.499Z,12.15
2019-05-03T00:09:42.504Z,14.98
2019-05-03T00:14:47.380Z,14.33
2019-05-03T00:19:49.582Z,15.32
2019-05-03T00:25:03.096Z,13.85
2019-05-03T00:29:55.915Z,15.48
2019-05-03T00:35:01.796Z,14.23
2019-05-03T00:40:05.818Z,18.02
2019-05-03T00:45:08.437Z,19.85
2019-05-03T00:50:12.060Z,22.20
2019-05-03T00:55:18.515Z,18.23
2019-05-03T01:00:18.846Z,25.25
2019-05-03T01:05:22.675Z,23.12
2019-05-03T01:10:25.388Z,25.92
2019-05-03T01:15:37.485Z,26.45
2019-05-03T01:20:39.864Z,27.20
2019-05-03T01:25:42.919Z,27.45
2019-05-03T01:30:45.586Z,26.50
2019-05-03T01:35:47.747Z,25.60
2019-05-03T01:40:49.917Z,26.17
2019-05-03T01:45:52.146Z,26.87
2019-05-03T01:51:22.769Z,26.40
2019-05-03T01:56:24.946Z,28.98
2019-05-03T02:01:55.470Z,23.07
2019-05-03T02:06:57.871Z,18.73
2019-05-03T02:12:02.003Z,15.83
2019-05-03T02:17:04.150Z,12.65
2019-05-03T02:22:06.302Z,16.30
2019-05-03T02:27:08.574Z,14.18
2019-05-03T02:32:13.317Z,11.33
2019-05-03T02:37:15.330Z,11.08
2019-05-03T02:42:17.767Z,11.10
2019-05-03T02:47:40.597Z,10.85
2019-05-03T02:52:43.435Z,11.68
2019-05-03T02:57:47.039Z,10.40
2019-05-03T03:02:49.608Z,10.03
2019-05-03T03:07:52.582Z,8.18
2019-05-03T03:12:58.334Z,10.45
2019-05-03T03:18:00.509Z,9.18
2019-05-03T03:23:02.825Z,9.25
2019-05-03T03:28:07.715Z,8.30
2019-05-03T03:33:17.142Z,7.92
2019-05-03T03:38:18.021Z,7.12
2019-05-03T03:43:21.599Z,8.25
2019-05-03T03:48:26.502Z,9.13
2019-05-03T03:53:31.164Z,7.85
2019-05-03T03:58:35.925Z,8.35
2019-05-03T04:03:37.563Z,9.68
2019-05-03T04:08:40.217Z,8.48
2019-05-03T04:13:45.240Z,7.85
2019-05-03T04:19:07.350Z,8.55
2019-05-03T04:24:09.549Z,12.37
2019-05-03T04:29:12.782Z,12.23
2019-05-03T04:34:16.181Z,10.18
2019-05-03T04:39:27.789Z,9.80
2019-05-03T04:44:31.779Z,11.60
2019-05-03T04:49:36.856Z,13.60
2019-05-03T04:54:45.270Z,17.62
2019-05-03T04:59:47.537Z,14.55
2019-05-03T05:04:49.603Z,14.53
2019-05-03T05:09:51.790Z,17.37
2019-05-03T05:14:56.113Z,13.22
2019-05-03T05:20:05.334Z,16.23
2019-05-03T05:25:11.657Z,15.68
2019-05-03T05:30:14.906Z,16.87
2019-05-03T05:35:17.199Z,16.37
2019-05-03T05:40:22.028Z,21.87
2019-05-03T05:45:24.666Z,26.25
2019-05-03T05:50:34.705Z,25.35
2019-05-03T05:55:59.246Z,24.60
2019-05-03T06:01:05.888Z,23.42
2019-05-03T06:06:10.801Z,17.77
2019-05-03T06:11:20.574Z,20.92
2019-05-03T06:16:35.724Z,23.85
2019-05-03T06:21:55.311Z,19.90
2019-05-03T06:27:02.672Z,17.02
2019-05-03T06:32:23.011Z,16.02
2019-05-03T06:37:27.856Z,16.25
2019-05-03T06:42:30.027Z,12.10
2019-05-03T06:47:32.505Z,12.43
2019-05-03T06:52:35.226Z,11.38
2019-05-03T06:57:44.699Z,11.12
2019-05-03T07:02:55.104Z,8.80
2019-05-03T07:08:15.637Z,9.38
2019-05-03T07:13:17.741Z,12.05
2019-05-03T07:18:19.904Z,10.15
2019-05-03T07:23:22.012Z,13.45
2019-05-03T07:28:24.782Z,15.83
2019-05-03T07:33:32.207Z,12.53
2019-05-03T07:38:35.429Z,12.33
2019-05-03T07:43:37.689Z,12.30
2019-05-03T07:48:39.908Z,13.72
2019-05-03T07:53:42.102Z,13.25
2019-05-03T07:59:00.045Z,12.58
2019-05-03T08:03:55.143Z,12.58
2019-05-03T08:08:57.523Z,13.50
2019-05-03T08:13:59.678Z,13.25
2019-05-03T08:19:01.859Z,12.55
2019-05-03T08:24:04.552Z,9.90
2019-05-03T08:29:15.984Z,9.43
2019-05-03T08:34:17.494Z,9.88
2019-05-03T08:39:19.616Z,10.10
2019-05-03T08:44:21.769Z,10.78
2019-05-03T08:49:25.476Z,10.30
2019-05-03T08:54:27.679Z,8.53
2019-05-03T08:59:32.646Z,12.73
2019-05-03T09:04:37.864Z,10.30
2019-05-03T09:10:13.563Z,8.08
2019-05-03T09:15:16.313Z,6.78
2019-05-03T09:20:18.516Z,6.55
2019-05-03T09:25:20.674Z,6.97
2019-05-03T09:30:25.103Z,7.62
2019-05-03T09:35:32.890Z,9.10
2019-05-03T09:40:31.417Z,8.30
2019-05-03T09:45:35.274Z,7.67
2019-05-03T09:50:37.736Z,9.55
2019-05-03T09:55:40.517Z,9.35
2019-05-03T10:00:44.644Z,7.17
2019-05-03T10:05:46.846Z,6.45
2019-05-03T10:11:06.859Z,6.95
2019-05-03T10:16:09.073Z,9.10
2019-05-03T10:21:11.266Z,8.90
2019-05-03T10:26:14.960Z,6.30
2019-05-03T10:31:17.682Z,7.67
2019-05-03T10:36:20.180Z,6.42
2019-05-03T10:41:22.311Z,7.10
2019-05-03T10:46:25.089Z,12.50
2019-05-03T10:51:29.776Z,7.30
2019-05-03T10:56:55.875Z,7.40
2019-05-03T11:02:20.781Z,6.12
2019-05-03T11:07:22.972Z,8.63
2019-05-03T11:12:26.072Z,4.58
2019-05-03T11:17:28.173Z,5.60
2019-05-03T11:22:30.341Z,5.12
2019-05-03T11:27:39.212Z,5.58
2019-05-03T11:32:52.543Z,6.25
2019-05-03T11:38:09.545Z,4.83
2019-05-03T11:43:11.886Z,6.28
2019-05-03T11:48:14.795Z,5.67
2019-05-03T11:53:16.996Z,5.50
2019-05-03T11:58:21.255Z,5.60
2019-05-03T12:03:30.091Z,5.00
2019-05-03T12:08:34.474Z,4.97
2019-05-03T12:13:36.573Z,5.67
2019-05-03T12:18:48.842Z,8.50
2019-05-03T12:23:45.580Z,7.05
2019-05-03T12:28:47.956Z,5.17
2019-05-03T12:33:50.791Z,4.08
2019-05-03T12:38:54.801Z,4.65
2019-05-03T12:43:57.269Z,5.15
2019-05-03T12:48:59.502Z,7.87
2019-05-03T12:54:01.879Z,7.15
2019-05-03T12:59:09.506Z,3.17
2019-05-03T13:04:15.297Z,3.58
2019-05-03T13:09:17.567Z,3.25
2019-05-03T13:14:19.783Z,4.53
2019-05-03T13:19:22.234Z,6.45
2019-05-03T13:24:25.978Z,5.50
2019-05-03T13:29:28.245Z,3.42
2019-05-03T13:34:30.649Z,5.25
2019-05-03T13:39:32.738Z,5.72
2019-05-03T13:44:35.577Z,6.72
2019-05-03T13:49:38.028Z,6.12
2019-05-03T13:54:40.305Z,6.05
2019-05-03T13:59:44.689Z,4.67
2019-05-03T14:04:52.390Z,5.22
2019-05-03T14:09:50.700Z,6.78
2019-05-03T14:14:55.642Z,4.97
2019-05-03T14:20:08.383Z,9.90
2019-05-03T14:25:10.481Z,6.33
2019-05-03T14:30:14.607Z,3.42
2019-05-03T14:35:16.876Z,5.92
2019-05-03T14:40:19.100Z,4.58
2019-05-03T14:45:21.233Z,4.50
2019-05-03T14:50:25.450Z,4.40
2019-05-03T14:55:39.543Z,4.15
2019-05-03T15:00:48.995Z,6.42
2019-05-03T15:05:51.180Z,3.75
2019-05-03T15:10:54.692Z,5.75
2019-05-03T15:15:56.909Z,4.60
2019-05-03T15:20:59.317Z,7.35
2019-05-03T15:26:01.472Z,5.22
2019-05-03T15:31:04.593Z,4.92
2019-05-03T15:36:07.144Z,4.35
2019-05-03T15:41:09.348Z,5.53
2019-05-03T15:46:37.351Z,4.90
2019-05-03T15:51:39.578Z,5.55
2019-05-03T15:56:41.798Z,5.97
2019-05-03T16:01:44.007Z,5.33
2019-05-03T16:06:46.519Z,4.17
2019-05-03T16:11:48.963Z,6.17
2019-05-03T16:16:54.812Z,3.90
2019-05-03T16:21:57.189Z,5.30
2019-05-03T16:27:24.716Z,3.72
2019-05-03T16:32:27.041Z,7.03
2019-05-03T16:37:29.317Z,3.70
2019-05-03T16:42:31.542Z,7.25
2019-05-03T16:47:35.445Z,6.40
2019-05-03T16:52:37.821Z,4.65
2019-05-03T16:57:40.421Z,6.60
2019-05-03T17:02:44.319Z,7.47
2019-05-03T17:07:52.459Z,5.22
2019-05-03T17:12:56.879Z,4.67
2019-05-03T17:17:58.707Z,5.58
2019-05-03T17:23:00.890Z,5.37
2019-05-03T17:28:04.877Z,8.93
2019-05-03T17:33:07.373Z,5.45
2019-05-03T17:38:10.011Z,6.47
2019-05-03T17:43:19.768Z,4.40
2019-05-03T17:48:21.998Z,8.23
2019-05-03T17:53:54.742Z,4.83
2019-05-03T17:59:25.707Z,5.97
2019-05-03T18:04:49.903Z,8.43
2019-05-03T18:09:52.397Z,6.87
2019-05-03T18:14:55.410Z,7.22
2019-05-03T18:19:57.808Z,9.58
2019-05-03T18:25:00.143Z,5.25
2019-05-03T18:30:08.846Z,7.08
2019-05-03T18:35:12.036Z,4.72
2019-05-03T18:40:14.265Z,5.42
2019-05-03T18:45:21.965Z,6.25
2019-05-03T18:50:24.608Z,6.42
2019-05-03T18:55:26.674Z,4.75
2019-05-03T19:00:29.470Z,6.47
2019-05-03T19:05:34.850Z,5.95
2019-05-03T19:10:44.645Z,7.78
2019-05-03T19:15:47.165Z,6.22
2019-05-03T19:20:49.552Z,8.60
2019-05-03T19:25:51.661Z,7.62
2019-05-03T19:30:54.912Z,6.50
2019-05-03T19:36:00.175Z,6.42
2019-05-03T19:41:01.610Z,5.42
2019-05-03T19:46:04.567Z,8.05
2019-05-03T19:51:07.910Z,11.90
2019-05-03T19:56:10.307Z,8.10
2019-05-03T20:01:34.955Z,6.87
2019-05-03T20:06:45.221Z,8.38
2019-05-03T20:11:47.470Z,8.80
2019-05-03T20:16:49.637Z,8.18
2019-05-03T20:21:52.047Z,9.83
2019-05-03T20:26:54.300Z,10.82
2019-05-03T20:31:56.766Z,9.63
2019-05-03T20:36:59.022Z,9.78
2019-05-03T20:42:01.229Z,8.28
2019-05-03T20:47:25.234Z,8.25
2019-05-03T20:52:27.597Z,10.55
2019-05-03T20:57:30.184Z,9.80
2019-05-03T21:02:34.383Z,10.57
2019-05-03T21:08:00.705Z,9.13
2019-05-03T21:20:25.398Z,10.58
2019-05-03T21:26:12.874Z,15.70
2019-05-03T21:31:10.895Z,10.08
2019-05-03T21:36:15.071Z,14.18
2019-05-03T21:41:17.432Z,13.83
2019-05-03T21:46:26.835Z,12.25
2019-05-03T21:51:29.027Z,14.47
2019-05-03T21:56:31.693Z,19.23
2019-05-03T22:01:37.513Z,16.20
2019-05-03T22:06:49.138Z,16.55
2019-05-03T22:12:11.224Z,16.62
2019-05-03T22:17:44.660Z,16.97
2019-05-03T22:22:56.721Z,15.55
2019-05-03T22:29:10.304Z,17.02
2019-05-03T22:34:25.490Z,16.10
2019-05-03T22:39:42.078Z,17.30
2019-05-03T22:45:27.491Z,17.80
2019-05-03T22:50:36.218Z,17.55
2019-05-03T22:55:48.618Z,16.25
2019-05-03T23:01:12.273Z,16.00
2019-05-03T23:06:28.130Z,19.45
2019-05-03T23:12:05.538Z,16.93
2019-05-03T23:23:51.954Z,24.63
2019-05-03T23:29:16.167Z,19.60
2019-05-03T23:34:41.816Z,19.27
2019-05-03T23:40:12.056Z,23.73
2019-05-03T23:45:27.964Z,22.40
2019-05-03T23:50:51.762Z,25.85
2019-05-03T23:56:21.133Z,22.27
